sensor_id;sensor_type;location;lat;lon;timestamp;temperature;humidity
80296;DHT22;69597;42.124;24.722;2023-05-10T00:00:15;23.50;59.00
80296;DHT22;69597;42.124;24.722;2023-05-10T00:02:41;23.50;59.00
80296;DHT22;69597;42.124;24.722;2023-05-10T00:05:07;23.50;59.10
80296;DHT22;69597;42.124;24.722;2023-05-10T00:07:32;23.50;59.10
80296;DHT22;69597;42.124;24.722;2023-05-10T00:09:58;23.50;59.10
80296;DHT22;69597;42.124;24.722;2023-05-10T00:12:24;23.50;59.20
80296;DHT22;69597;42.124;24.722;2023-05-10T00:14:49;23.50;59.20
80296;DHT22;69597;42.124;24.722;2023-05-10T00:17:15;23.50;59.00
80296;DHT22;69597;42.124;24.722;2023-05-10T00:19:40;23.50;58.90
80296;DHT22;69597;42.124;24.722;2023-05-10T00:22:06;23.50;58.80
80296;DHT22;69597;42.124;24.722;2023-05-10T00:24:32;23.50;58.70
80296;DHT22;69597;42.124;24.722;2023-05-10T00:26:57;23.50;58.90
80296;DHT22;69597;42.124;24.722;2023-05-10T00:29:23;23.50;59.00
80296;DHT22;69597;42.124;24.722;2023-05-10T00:31:49;23.50;59.00
80296;DHT22;69597;42.124;24.722;2023-05-10T00:34:15;23.50;59.10
80296;DHT22;69597;42.124;24.722;2023-05-10T00:36:40;23.50;58.90
80296;DHT22;69597;42.124;24.722;2023-05-10T00:39:06;23.50;58.90
80296;DHT22;69597;42.124;24.722;2023-05-10T00:41:33;23.50;58.80
80296;DHT22;69597;42.124;24.722;2023-05-10T00:43:58;23.50;58.80
80296;DHT22;69597;42.124;24.722;2023-05-10T00:46:25;23.50;58.70
80296;DHT22;69597;42.124;24.722;2023-05-10T00:48:51;23.50;58.60
80296;DHT22;69597;42.124;24.722;2023-05-10T00:51:17;23.50;58.60
80296;DHT22;69597;42.124;24.722;2023-05-10T00:53:45;23.50;58.50
80296;DHT22;69597;42.124;24.722;2023-05-10T00:56:10;23.50;58.40
80296;DHT22;69597;42.124;24.722;2023-05-10T00:58:37;23.40;59.40
80296;DHT22;69597;42.124;24.722;2023-05-10T01:01:04;23.50;58.40
80296;DHT22;69597;42.124;24.722;2023-05-10T01:03:31;23.40;58.40
80296;DHT22;69597;42.124;24.722;2023-05-10T01:05:56;23.50;58.50
80296;DHT22;69597;42.124;24.722;2023-05-10T01:08:22;23.40;58.60
80296;DHT22;69597;42.124;24.722;2023-05-10T01:10:48;23.40;58.60
80296;DHT22;69597;42.124;24.722;2023-05-10T01:13:23;23.40;58.50
80296;DHT22;69597;42.124;24.722;2023-05-10T01:15:55;23.40;58.40
80296;DHT22;69597;42.124;24.722;2023-05-10T01:18:21;23.50;58.30
80296;DHT22;69597;42.124;24.722;2023-05-10T01:20:52;23.40;58.30
80296;DHT22;69597;42.124;24.722;2023-05-10T01:23:44;23.40;58.30
80296;DHT22;69597;42.124;24.722;2023-05-10T01:34:35;23.40;58.50
80296;DHT22;69597;42.124;24.722;2023-05-10T01:37:09;23.40;58.50
80296;DHT22;69597;42.124;24.722;2023-05-10T01:42:21;23.40;58.30
80296;DHT22;69597;42.124;24.722;2023-05-10T01:47:46;23.40;58.40
80296;DHT22;69597;42.124;24.722;2023-05-10T01:50:18;23.40;58.30
80296;DHT22;69597;42.124;24.722;2023-05-10T01:52:59;23.40;58.40
80296;DHT22;69597;42.124;24.722;2023-05-10T01:55:28;23.40;58.40
80296;DHT22;69597;42.124;24.722;2023-05-10T01:58:06;23.40;58.80
80296;DHT22;69597;42.124;24.722;2023-05-10T02:00:34;23.40;58.80
80296;DHT22;69597;42.124;24.722;2023-05-10T02:03:05;23.40;58.60
80296;DHT22;69597;42.124;24.722;2023-05-10T02:05:32;23.40;58.60
80296;DHT22;69597;42.124;24.722;2023-05-10T02:07:59;23.40;58.60
80296;DHT22;69597;42.124;24.722;2023-05-10T02:10:27;23.40;58.50
80296;DHT22;69597;42.124;24.722;2023-05-10T02:12:53;23.40;58.40
80296;DHT22;69597;42.124;24.722;2023-05-10T02:15:23;23.40;58.40
80296;DHT22;69597;42.124;24.722;2023-05-10T02:17:50;23.40;58.40
80296;DHT22;69597;42.124;24.722;2023-05-10T02:20:18;23.40;58.60
80296;DHT22;69597;42.124;24.722;2023-05-10T02:22:47;23.40;58.50
80296;DHT22;69597;42.124;24.722;2023-05-10T02:25:14;23.40;58.40
80296;DHT22;69597;42.124;24.722;2023-05-10T02:27:42;23.40;58.50
80296;DHT22;69597;42.124;24.722;2023-05-10T02:30:10;23.40;58.30
80296;DHT22;69597;42.124;24.722;2023-05-10T02:32:37;23.40;58.40
80296;DHT22;69597;42.124;24.722;2023-05-10T02:35:04;23.40;58.20
80296;DHT22;69597;42.124;24.722;2023-05-10T02:37:31;23.40;58.40
80296;DHT22;69597;42.124;24.722;2023-05-10T02:39:58;23.40;58.30
80296;DHT22;69597;42.124;24.722;2023-05-10T02:42:27;23.40;58.30
80296;DHT22;69597;42.124;24.722;2023-05-10T02:44:56;23.40;58.30
80296;DHT22;69597;42.124;24.722;2023-05-10T02:47:24;23.40;58.30
80296;DHT22;69597;42.124;24.722;2023-05-10T02:49:51;23.40;58.20
80296;DHT22;69597;42.124;24.722;2023-05-10T02:52:22;23.40;58.20
80296;DHT22;69597;42.124;24.722;2023-05-10T02:54:51;23.40;58.20
80296;DHT22;69597;42.124;24.722;2023-05-10T02:57:20;23.40;58.00
80296;DHT22;69597;42.124;24.722;2023-05-10T02:59:47;23.40;57.90
80296;DHT22;69597;42.124;24.722;2023-05-10T03:02:13;23.40;57.90
80296;DHT22;69597;42.124;24.722;2023-05-10T03:04:39;23.40;57.80
80296;DHT22;69597;42.124;24.722;2023-05-10T03:07:05;23.40;57.90
80296;DHT22;69597;42.124;24.722;2023-05-10T03:09:32;23.40;57.80
80296;DHT22;69597;42.124;24.722;2023-05-10T03:14:57;23.40;57.90
80296;DHT22;69597;42.124;24.722;2023-05-10T03:20:10;23.40;57.70
80296;DHT22;69597;42.124;24.722;2023-05-10T03:22:49;23.40;57.60
80296;DHT22;69597;42.124;24.722;2023-05-10T03:25:17;23.40;57.70
80296;DHT22;69597;42.124;24.722;2023-05-10T03:27:44;23.40;57.60
80296;DHT22;69597;42.124;24.722;2023-05-10T03:30:12;23.40;57.60
80296;DHT22;69597;42.124;24.722;2023-05-10T03:32:38;23.40;57.60
80296;DHT22;69597;42.124;24.722;2023-05-10T03:35:11;23.40;57.60
80296;DHT22;69597;42.124;24.722;2023-05-10T03:37:37;23.40;57.70
80296;DHT22;69597;42.124;24.722;2023-05-10T03:40:03;23.40;57.70
80296;DHT22;69597;42.124;24.722;2023-05-10T03:42:29;23.40;57.80
80296;DHT22;69597;42.124;24.722;2023-05-10T03:44:55;23.40;58.30
80296;DHT22;69597;42.124;24.722;2023-05-10T03:47:21;23.40;58.30
80296;DHT22;69597;42.124;24.722;2023-05-10T03:49:47;23.40;58.30
80296;DHT22;69597;42.124;24.722;2023-05-10T03:52:13;23.40;57.60
80296;DHT22;69597;42.124;24.722;2023-05-10T03:54:39;23.40;56.80
80296;DHT22;69597;42.124;24.722;2023-05-10T03:57:05;23.40;56.20
80296;DHT22;69597;42.124;24.722;2023-05-10T03:59:30;23.30;56.10
80296;DHT22;69597;42.124;24.722;2023-05-10T04:01:56;23.30;55.20
80296;DHT22;69597;42.124;24.722;2023-05-10T04:04:22;23.30;53.60
80296;DHT22;69597;42.124;24.722;2023-05-10T04:06:49;23.20;53.60
80296;DHT22;69597;42.124;24.722;2023-05-10T04:09:14;23.20;54.00
80296;DHT22;69597;42.124;24.722;2023-05-10T04:11:40;23.20;54.60
80296;DHT22;69597;42.124;24.722;2023-05-10T04:14:06;23.20;54.40
80296;DHT22;69597;42.124;24.722;2023-05-10T04:16:32;23.20;54.30
80296;DHT22;69597;42.124;24.722;2023-05-10T04:18:57;23.20;54.30
80296;DHT22;69597;42.124;24.722;2023-05-10T04:21:23;23.30;48.90
80296;DHT22;69597;42.124;24.722;2023-05-10T04:23:49;23.30;48.30
80296;DHT22;69597;42.124;24.722;2023-05-10T04:26:14;23.20;47.60
80296;DHT22;69597;42.124;24.722;2023-05-10T04:28:40;23.10;50.60
80296;DHT22;69597;42.124;24.722;2023-05-10T04:31:08;23.00;51.90
80296;DHT22;69597;42.124;24.722;2023-05-10T04:33:33;22.90;53.10
80296;DHT22;69597;42.124;24.722;2023-05-10T04:36:00;22.80;52.90
80296;DHT22;69597;42.124;24.722;2023-05-10T04:38:26;22.80;52.80
80296;DHT22;69597;42.124;24.722;2023-05-10T04:40:52;22.80;52.90
80296;DHT22;69597;42.124;24.722;2023-05-10T04:43:18;22.80;53.20
80296;DHT22;69597;42.124;24.722;2023-05-10T04:45:44;22.90;53.20
80296;DHT22;69597;42.124;24.722;2023-05-10T04:48:09;22.90;52.60
80296;DHT22;69597;42.124;24.722;2023-05-10T04:50:35;22.90;52.10
80296;DHT22;69597;42.124;24.722;2023-05-10T04:53:01;22.90;51.30
80296;DHT22;69597;42.124;24.722;2023-05-10T04:55:27;22.80;50.00
80296;DHT22;69597;42.124;24.722;2023-05-10T04:57:53;22.70;49.40
80296;DHT22;69597;42.124;24.722;2023-05-10T05:00:20;22.70;49.20
80296;DHT22;69597;42.124;24.722;2023-05-10T05:02:46;22.70;49.00
80296;DHT22;69597;42.124;24.722;2023-05-10T05:05:12;22.70;48.60
80296;DHT22;69597;42.124;24.722;2023-05-10T05:07:38;22.70;48.60
80296;DHT22;69597;42.124;24.722;2023-05-10T05:10:07;22.70;48.60
80296;DHT22;69597;42.124;24.722;2023-05-10T05:12:34;22.60;47.70
80296;DHT22;69597;42.124;24.722;2023-05-10T05:15:00;22.70;47.20
80296;DHT22;69597;42.124;24.722;2023-05-10T05:17:25;22.70;46.70
80296;DHT22;69597;42.124;24.722;2023-05-10T05:19:51;22.70;46.50
80296;DHT22;69597;42.124;24.722;2023-05-10T05:22:17;22.70;46.30
80296;DHT22;69597;42.124;24.722;2023-05-10T05:24:44;22.70;46.10
80296;DHT22;69597;42.124;24.722;2023-05-10T05:27:11;22.70;46.10
80296;DHT22;69597;42.124;24.722;2023-05-10T05:29:36;22.80;46.10
80296;DHT22;69597;42.124;24.722;2023-05-10T05:32:02;22.70;44.70
80296;DHT22;69597;42.124;24.722;2023-05-10T05:34:28;22.80;45.10
80296;DHT22;69597;42.124;24.722;2023-05-10T05:36:53;22.80;43.60
80296;DHT22;69597;42.124;24.722;2023-05-10T05:39:19;22.80;44.60
80296;DHT22;69597;42.124;24.722;2023-05-10T05:41:45;22.80;44.60
80296;DHT22;69597;42.124;24.722;2023-05-10T05:44:12;22.90;44.50
80296;DHT22;69597;42.124;24.722;2023-05-10T05:46:37;22.90;44.40
80296;DHT22;69597;42.124;24.722;2023-05-10T05:49:03;23.00;44.30
80296;DHT22;69597;42.124;24.722;2023-05-10T05:51:29;23.00;44.30
80296;DHT22;69597;42.124;24.722;2023-05-10T05:53:55;23.00;44.00
80296;DHT22;69597;42.124;24.722;2023-05-10T05:56:21;23.00;43.90
80296;DHT22;69597;42.124;24.722;2023-05-10T05:58:50;23.10;43.80
80296;DHT22;69597;42.124;24.722;2023-05-10T06:01:16;23.10;43.40
80296;DHT22;69597;42.124;24.722;2023-05-10T06:03:42;23.10;43.70
80296;DHT22;69597;42.124;24.722;2023-05-10T06:06:07;23.20;43.60
80296;DHT22;69597;42.124;24.722;2023-05-10T06:08:33;23.20;43.60
80296;DHT22;69597;42.124;24.722;2023-05-10T06:11:00;23.30;43.10
80296;DHT22;69597;42.124;24.722;2023-05-10T06:13:25;23.30;43.00
80296;DHT22;69597;42.124;24.722;2023-05-10T06:16:00;23.40;43.00
80296;DHT22;69597;42.124;24.722;2023-05-10T06:18:26;23.40;42.90
80296;DHT22;69597;42.124;24.722;2023-05-10T06:20:52;23.40;42.30
80296;DHT22;69597;42.124;24.722;2023-05-10T06:23:17;23.50;42.50
80296;DHT22;69597;42.124;24.722;2023-05-10T06:25:43;23.50;42.10
80296;DHT22;69597;42.124;24.722;2023-05-10T06:28:09;23.50;41.90
80296;DHT22;69597;42.124;24.722;2023-05-10T06:30:36;23.60;42.00
80296;DHT22;69597;42.124;24.722;2023-05-10T06:33:02;23.60;42.20
80296;DHT22;69597;42.124;24.722;2023-05-10T06:35:28;23.70;42.30
80296;DHT22;69597;42.124;24.722;2023-05-10T06:37:54;23.70;42.30
80296;DHT22;69597;42.124;24.722;2023-05-10T06:40:20;23.70;42.30
80296;DHT22;69597;42.124;24.722;2023-05-10T06:42:47;23.70;42.30
80296;DHT22;69597;42.124;24.722;2023-05-10T06:45:13;23.80;42.40
80296;DHT22;69597;42.124;24.722;2023-05-10T06:47:40;23.80;42.40
80296;DHT22;69597;42.124;24.722;2023-05-10T06:50:08;23.80;42.40
80296;DHT22;69597;42.124;24.722;2023-05-10T06:52:35;23.80;42.40
80296;DHT22;69597;42.124;24.722;2023-05-10T06:55:01;23.80;42.40
80296;DHT22;69597;42.124;24.722;2023-05-10T06:57:27;23.80;42.50
80296;DHT22;69597;42.124;24.722;2023-05-10T06:59:52;23.80;42.60
80296;DHT22;69597;42.124;24.722;2023-05-10T07:02:18;23.80;42.60
80296;DHT22;69597;42.124;24.722;2023-05-10T07:04:44;23.80;42.60
80296;DHT22;69597;42.124;24.722;2023-05-10T07:07:12;23.80;42.60
80296;DHT22;69597;42.124;24.722;2023-05-10T07:09:38;23.80;42.70
80296;DHT22;69597;42.124;24.722;2023-05-10T07:12:04;23.80;42.70
80296;DHT22;69597;42.124;24.722;2023-05-10T07:14:30;23.80;42.80
80296;DHT22;69597;42.124;24.722;2023-05-10T07:16:56;23.90;42.90
80296;DHT22;69597;42.124;24.722;2023-05-10T07:19:21;23.90;42.80
80296;DHT22;69597;42.124;24.722;2023-05-10T07:21:48;23.90;42.90
80296;DHT22;69597;42.124;24.722;2023-05-10T07:24:13;23.90;42.90
80296;DHT22;69597;42.124;24.722;2023-05-10T07:26:39;23.80;42.90
80296;DHT22;69597;42.124;24.722;2023-05-10T07:29:05;23.80;43.00
80296;DHT22;69597;42.124;24.722;2023-05-10T07:31:30;23.90;43.20
80296;DHT22;69597;42.124;24.722;2023-05-10T07:33:56;23.90;43.10
80296;DHT22;69597;42.124;24.722;2023-05-10T07:36:22;23.90;43.20
80296;DHT22;69597;42.124;24.722;2023-05-10T07:38:47;23.90;43.20
80296;DHT22;69597;42.124;24.722;2023-05-10T07:41:15;23.90;43.10
80296;DHT22;69597;42.124;24.722;2023-05-10T07:43:41;23.90;44.30
80296;DHT22;69597;42.124;24.722;2023-05-10T07:46:06;23.90;43.20
80296;DHT22;69597;42.124;24.722;2023-05-10T07:48:32;23.90;43.30
80296;DHT22;69597;42.124;24.722;2023-05-10T07:50:58;23.90;43.20
80296;DHT22;69597;42.124;24.722;2023-05-10T07:53:26;24.00;43.10
80296;DHT22;69597;42.124;24.722;2023-05-10T07:55:57;23.90;43.30
80296;DHT22;69597;42.124;24.722;2023-05-10T07:58:24;24.00;43.20
80296;DHT22;69597;42.124;24.722;2023-05-10T08:00:50;24.10;43.20
80296;DHT22;69597;42.124;24.722;2023-05-10T08:03:15;24.10;43.10
80296;DHT22;69597;42.124;24.722;2023-05-10T08:05:41;24.10;43.00
80296;DHT22;69597;42.124;24.722;2023-05-10T08:12:59;24.40;41.30
80296;DHT22;69597;42.124;24.722;2023-05-10T08:15:25;24.30;42.70
80296;DHT22;69597;42.124;24.722;2023-05-10T08:17:53;24.30;42.70
80296;DHT22;69597;42.124;24.722;2023-05-10T08:20:19;24.30;42.70
80296;DHT22;69597;42.124;24.722;2023-05-10T08:22:46;24.30;42.70
80296;DHT22;69597;42.124;24.722;2023-05-10T08:25:12;24.30;42.70
80296;DHT22;69597;42.124;24.722;2023-05-10T08:27:38;24.30;42.60
80296;DHT22;69597;42.124;24.722;2023-05-10T08:30:04;24.30;42.60
80296;DHT22;69597;42.124;24.722;2023-05-10T08:32:29;24.40;42.70
80296;DHT22;69597;42.124;24.722;2023-05-10T08:34:56;24.40;42.70
80296;DHT22;69597;42.124;24.722;2023-05-10T08:37:23;24.40;42.60
80296;DHT22;69597;42.124;24.722;2023-05-10T08:39:49;24.40;42.70
80296;DHT22;69597;42.124;24.722;2023-05-10T08:42:19;24.40;42.60
80296;DHT22;69597;42.124;24.722;2023-05-10T08:44:48;24.40;42.70
80296;DHT22;69597;42.124;24.722;2023-05-10T08:47:16;24.40;42.60
80296;DHT22;69597;42.124;24.722;2023-05-10T08:49:42;24.40;42.50
80296;DHT22;69597;42.124;24.722;2023-05-10T08:52:11;24.50;42.60
80296;DHT22;69597;42.124;24.722;2023-05-10T08:54:38;24.50;42.60
80296;DHT22;69597;42.124;24.722;2023-05-10T08:57:04;24.50;42.60
80296;DHT22;69597;42.124;24.722;2023-05-10T08:59:31;24.50;42.60
80296;DHT22;69597;42.124;24.722;2023-05-10T09:02:00;24.40;42.70
80296;DHT22;69597;42.124;24.722;2023-05-10T09:04:27;24.40;42.70
80296;DHT22;69597;42.124;24.722;2023-05-10T09:06:54;24.40;42.60
80296;DHT22;69597;42.124;24.722;2023-05-10T09:09:21;24.40;42.60
80296;DHT22;69597;42.124;24.722;2023-05-10T09:11:47;24.40;42.70
80296;DHT22;69597;42.124;24.722;2023-05-10T09:14:14;24.40;42.70
80296;DHT22;69597;42.124;24.722;2023-05-10T09:16:40;24.40;42.70
80296;DHT22;69597;42.124;24.722;2023-05-10T09:19:07;24.40;42.70
80296;DHT22;69597;42.124;24.722;2023-05-10T09:21:35;24.40;42.70
80296;DHT22;69597;42.124;24.722;2023-05-10T09:24:04;24.40;42.70
80296;DHT22;69597;42.124;24.722;2023-05-10T09:26:30;24.50;42.70
80296;DHT22;69597;42.124;24.722;2023-05-10T09:28:58;24.40;42.70
80296;DHT22;69597;42.124;24.722;2023-05-10T09:31:24;24.50;42.70
80296;DHT22;69597;42.124;24.722;2023-05-10T09:33:51;24.50;42.70
80296;DHT22;69597;42.124;24.722;2023-05-10T09:36:17;24.50;42.60
80296;DHT22;69597;42.124;24.722;2023-05-10T09:38:50;24.50;42.60
80296;DHT22;69597;42.124;24.722;2023-05-10T09:41:22;24.60;42.60
80296;DHT22;69597;42.124;24.722;2023-05-10T09:43:48;24.60;42.40
80296;DHT22;69597;42.124;24.722;2023-05-10T09:46:15;24.60;42.40
80296;DHT22;69597;42.124;24.722;2023-05-10T09:48:43;24.70;42.40
80296;DHT22;69597;42.124;24.722;2023-05-10T09:51:09;24.70;42.30
80296;DHT22;69597;42.124;24.722;2023-05-10T09:53:35;24.70;42.30
80296;DHT22;69597;42.124;24.722;2023-05-10T09:56:01;24.70;42.20
80296;DHT22;69597;42.124;24.722;2023-05-10T09:58:27;24.70;42.10
80296;DHT22;69597;42.124;24.722;2023-05-10T10:00:53;24.80;42.10
80296;DHT22;69597;42.124;24.722;2023-05-10T10:03:20;24.80;43.10
80296;DHT22;69597;42.124;24.722;2023-05-10T10:05:47;24.80;41.90
80296;DHT22;69597;42.124;24.722;2023-05-10T10:08:14;24.80;41.90
80296;DHT22;69597;42.124;24.722;2023-05-10T10:10:41;24.80;41.90
80296;DHT22;69597;42.124;24.722;2023-05-10T10:13:06;24.80;41.90
80296;DHT22;69597;42.124;24.722;2023-05-10T10:15:33;24.90;42.00
80296;DHT22;69597;42.124;24.722;2023-05-10T10:18:00;24.90;41.70
80296;DHT22;69597;42.124;24.722;2023-05-10T10:20:26;25.00;41.50
80296;DHT22;69597;42.124;24.722;2023-05-10T10:22:52;25.10;41.30
80296;DHT22;69597;42.124;24.722;2023-05-10T10:25:20;25.20;41.10
80296;DHT22;69597;42.124;24.722;2023-05-10T10:33:01;25.40;40.60
80296;DHT22;69597;42.124;24.722;2023-05-10T10:35:33;25.50;40.50
80296;DHT22;69597;42.124;24.722;2023-05-10T10:38:00;25.50;40.40
80296;DHT22;69597;42.124;24.722;2023-05-10T10:40:32;25.50;40.20
80296;DHT22;69597;42.124;24.722;2023-05-10T10:43:25;25.60;40.20
80296;DHT22;69597;42.124;24.722;2023-05-10T10:46:10;25.50;40.10
80296;DHT22;69597;42.124;24.722;2023-05-10T10:48:41;25.60;40.20
80296;DHT22;69597;42.124;24.722;2023-05-10T10:51:06;25.60;40.10
80296;DHT22;69597;42.124;24.722;2023-05-10T10:53:33;25.60;40.10
80296;DHT22;69597;42.124;24.722;2023-05-10T10:56:10;25.60;40.00
80296;DHT22;69597;42.124;24.722;2023-05-10T10:58:37;25.60;40.00
80296;DHT22;69597;42.124;24.722;2023-05-10T11:01:15;25.70;39.90
80296;DHT22;69597;42.124;24.722;2023-05-10T11:06:29;25.80;39.80
80296;DHT22;69597;42.124;24.722;2023-05-10T11:08:57;25.80;39.60
80296;DHT22;69597;42.124;24.722;2023-05-10T11:11:23;25.90;39.40
80296;DHT22;69597;42.124;24.722;2023-05-10T11:13:48;25.90;39.30
80296;DHT22;69597;42.124;24.722;2023-05-10T11:16:16;26.00;39.20
80296;DHT22;69597;42.124;24.722;2023-05-10T11:19:04;26.10;39.00
80296;DHT22;69597;42.124;24.722;2023-05-10T11:21:33;26.20;39.00
80296;DHT22;69597;42.124;24.722;2023-05-10T11:24:00;26.20;38.70
80296;DHT22;69597;42.124;24.722;2023-05-10T11:26:30;26.30;38.60
80296;DHT22;69597;42.124;24.722;2023-05-10T11:28:56;26.30;38.60
80296;DHT22;69597;42.124;24.722;2023-05-10T11:31:24;26.30;38.40
80296;DHT22;69597;42.124;24.722;2023-05-10T11:33:56;26.40;38.40
80296;DHT22;69597;42.124;24.722;2023-05-10T11:36:24;26.40;38.30
80296;DHT22;69597;42.124;24.722;2023-05-10T11:38:51;26.40;38.20
80296;DHT22;69597;42.124;24.722;2023-05-10T11:41:19;26.50;38.20
80296;DHT22;69597;42.124;24.722;2023-05-10T11:43:48;26.50;38.10
80296;DHT22;69597;42.124;24.722;2023-05-10T11:46:15;26.60;38.00
80296;DHT22;69597;42.124;24.722;2023-05-10T11:48:42;26.60;38.00
80296;DHT22;69597;42.124;24.722;2023-05-10T11:51:11;26.60;37.90
80296;DHT22;69597;42.124;24.722;2023-05-10T11:53:37;26.60;37.90
80296;DHT22;69597;42.124;24.722;2023-05-10T11:56:12;26.60;37.90
80296;DHT22;69597;42.124;24.722;2023-05-10T11:58:39;26.60;37.90
80296;DHT22;69597;42.124;24.722;2023-05-10T12:01:07;26.60;37.90
80296;DHT22;69597;42.124;24.722;2023-05-10T12:03:33;26.60;37.80
80296;DHT22;69597;42.124;24.722;2023-05-10T12:06:00;26.70;37.80
80296;DHT22;69597;42.124;24.722;2023-05-10T12:08:27;26.70;37.80
80296;DHT22;69597;42.124;24.722;2023-05-10T12:11:07;26.70;37.80
80296;DHT22;69597;42.124;24.722;2023-05-10T12:13:40;26.70;37.70
80296;DHT22;69597;42.124;24.722;2023-05-10T12:16:16;26.80;37.60
80296;DHT22;69597;42.124;24.722;2023-05-10T12:18:42;26.80;37.70
80296;DHT22;69597;42.124;24.722;2023-05-10T12:21:10;26.80;37.60
80296;DHT22;69597;42.124;24.722;2023-05-10T12:23:37;26.80;37.60
80296;DHT22;69597;42.124;24.722;2023-05-10T12:26:03;26.80;37.60
80296;DHT22;69597;42.124;24.722;2023-05-10T12:28:30;26.80;37.50
80296;DHT22;69597;42.124;24.722;2023-05-10T12:30:58;26.80;37.50
80296;DHT22;69597;42.124;24.722;2023-05-10T12:33:24;26.90;37.50
80296;DHT22;69597;42.124;24.722;2023-05-10T12:35:51;26.80;37.40
80296;DHT22;69597;42.124;24.722;2023-05-10T12:40:54;26.80;37.60
80296;DHT22;69597;42.124;24.722;2023-05-10T12:43:19;26.80;37.60
80296;DHT22;69597;42.124;24.722;2023-05-10T12:45:45;26.80;37.60
80296;DHT22;69597;42.124;24.722;2023-05-10T12:48:13;26.80;37.60
80296;DHT22;69597;42.124;24.722;2023-05-10T12:50:39;26.80;37.60
80296;DHT22;69597;42.124;24.722;2023-05-10T12:53:04;26.80;37.50
80296;DHT22;69597;42.124;24.722;2023-05-10T12:55:30;26.80;38.70
80296;DHT22;69597;42.124;24.722;2023-05-10T12:57:56;26.80;37.60
80296;DHT22;69597;42.124;24.722;2023-05-10T13:00:21;26.80;37.60
80296;DHT22;69597;42.124;24.722;2023-05-10T13:02:47;26.80;37.70
80296;DHT22;69597;42.124;24.722;2023-05-10T13:05:13;26.70;37.70
80296;DHT22;69597;42.124;24.722;2023-05-10T13:07:39;26.70;37.80
80296;DHT22;69597;42.124;24.722;2023-05-10T13:10:05;26.70;37.90
80296;DHT22;69597;42.124;24.722;2023-05-10T13:12:32;26.60;38.00
80296;DHT22;69597;42.124;24.722;2023-05-10T13:14:57;26.60;38.00
80296;DHT22;69597;42.124;24.722;2023-05-10T13:17:24;26.60;38.00
80296;DHT22;69597;42.124;24.722;2023-05-10T13:19:50;26.60;38.10
80296;DHT22;69597;42.124;24.722;2023-05-10T13:22:16;26.60;37.90
80296;DHT22;69597;42.124;24.722;2023-05-10T13:24:41;26.60;37.80
80296;DHT22;69597;42.124;24.722;2023-05-10T13:27:07;26.60;38.00
80296;DHT22;69597;42.124;24.722;2023-05-10T13:29:33;26.50;38.10
80296;DHT22;69597;42.124;24.722;2023-05-10T13:31:59;26.40;38.30
80296;DHT22;69597;42.124;24.722;2023-05-10T13:34:24;26.40;38.20
80296;DHT22;69597;42.124;24.722;2023-05-10T13:36:50;26.40;38.50
80296;DHT22;69597;42.124;24.722;2023-05-10T13:39:16;26.40;38.50
80296;DHT22;69597;42.124;24.722;2023-05-10T13:41:42;26.30;38.60
80296;DHT22;69597;42.124;24.722;2023-05-10T13:44:07;26.30;38.80
80296;DHT22;69597;42.124;24.722;2023-05-10T13:46:33;26.20;38.80
80296;DHT22;69597;42.124;24.722;2023-05-10T13:48:59;26.10;38.90
80296;DHT22;69597;42.124;24.722;2023-05-10T13:51:24;26.10;38.90
80296;DHT22;69597;42.124;24.722;2023-05-10T13:53:50;26.00;39.00
80296;DHT22;69597;42.124;24.722;2023-05-10T13:56:35;26.00;39.20
80296;DHT22;69597;42.124;24.722;2023-05-10T13:59:01;26.00;39.20
80296;DHT22;69597;42.124;24.722;2023-05-10T14:01:27;26.00;39.30
80296;DHT22;69597;42.124;24.722;2023-05-10T14:03:52;26.00;39.20
80296;DHT22;69597;42.124;24.722;2023-05-10T14:06:18;25.90;39.10
80296;DHT22;69597;42.124;24.722;2023-05-10T14:08:44;26.00;38.60
80296;DHT22;69597;42.124;24.722;2023-05-10T14:11:13;26.00;39.00
80296;DHT22;69597;42.124;24.722;2023-05-10T14:13:38;26.00;39.10
80296;DHT22;69597;42.124;24.722;2023-05-10T14:16:04;26.00;39.10
80296;DHT22;69597;42.124;24.722;2023-05-10T14:18:30;26.00;39.10
80296;DHT22;69597;42.124;24.722;2023-05-10T14:20:56;26.00;39.00
80296;DHT22;69597;42.124;24.722;2023-05-10T14:23:22;26.00;39.00
80296;DHT22;69597;42.124;24.722;2023-05-10T14:25:51;26.10;39.50
80296;DHT22;69597;42.124;24.722;2023-05-10T14:28:17;26.20;39.10
80296;DHT22;69597;42.124;24.722;2023-05-10T14:30:44;26.30;39.10
80296;DHT22;69597;42.124;24.722;2023-05-10T14:33:09;26.30;39.10
80296;DHT22;69597;42.124;24.722;2023-05-10T14:35:35;26.40;39.10
80296;DHT22;69597;42.124;24.722;2023-05-10T14:38:04;26.40;39.40
80296;DHT22;69597;42.124;24.722;2023-05-10T14:40:30;26.40;39.20
80296;DHT22;69597;42.124;24.722;2023-05-10T14:42:56;26.40;39.30
80296;DHT22;69597;42.124;24.722;2023-05-10T14:45:22;26.40;39.10
80296;DHT22;69597;42.124;24.722;2023-05-10T14:47:48;26.30;39.50
80296;DHT22;69597;42.124;24.722;2023-05-10T14:50:14;26.30;39.80
80296;DHT22;69597;42.124;24.722;2023-05-10T14:56:02;26.10;40.10
80296;DHT22;69597;42.124;24.722;2023-05-10T14:58:28;26.00;40.00
80296;DHT22;69597;42.124;24.722;2023-05-10T15:00:54;26.00;40.60
80296;DHT22;69597;42.124;24.722;2023-05-10T15:03:19;25.90;41.10
80296;DHT22;69597;42.124;24.722;2023-05-10T15:05:45;25.80;41.30
80296;DHT22;69597;42.124;24.722;2023-05-10T15:08:11;25.70;41.50
80296;DHT22;69597;42.124;24.722;2023-05-10T15:10:38;25.70;41.70
80296;DHT22;69597;42.124;24.722;2023-05-10T15:13:04;25.60;41.70
80296;DHT22;69597;42.124;24.722;2023-05-10T15:15:30;25.60;41.90
80296;DHT22;69597;42.124;24.722;2023-05-10T15:17:56;25.50;42.20
80296;DHT22;69597;42.124;24.722;2023-05-10T15:20:21;25.50;42.30
80296;DHT22;69597;42.124;24.722;2023-05-10T15:22:47;25.50;42.30
80296;DHT22;69597;42.124;24.722;2023-05-10T15:25:13;25.40;42.70
80296;DHT22;69597;42.124;24.722;2023-05-10T15:27:39;25.40;42.80
80296;DHT22;69597;42.124;24.722;2023-05-10T15:30:15;25.30;42.80
80296;DHT22;69597;42.124;24.722;2023-05-10T15:32:41;25.20;43.00
80296;DHT22;69597;42.124;24.722;2023-05-10T15:35:20;25.20;43.40
80296;DHT22;69597;42.124;24.722;2023-05-10T15:37:47;25.10;43.60
80296;DHT22;69597;42.124;24.722;2023-05-10T15:40:13;25.10;43.80
80296;DHT22;69597;42.124;24.722;2023-05-10T15:42:39;25.00;43.90
80296;DHT22;69597;42.124;24.722;2023-05-10T15:45:05;25.00;44.10
80296;DHT22;69597;42.124;24.722;2023-05-10T15:47:31;24.90;43.80
80296;DHT22;69597;42.124;24.722;2023-05-10T15:49:57;24.90;44.00
80296;DHT22;69597;42.124;24.722;2023-05-10T15:52:22;24.90;44.50